Weather History for Big Rapids, MI

Change the Weather History Date:

Sunday, January 5, 2014

  Actual Average Record
Temperature  
Mean Temperature 22 °F -  
Max Temperature 29 °F 28 °F 51 °F (2007)
Min Temperature 14 °F 11 °F -16 °F (1979)
Degree Days  
Heating Degree Days 44    
Moisture  
Dew Point 17 °F    
Average Humidity 83    
Maximum Humidity 100    
Minimum Humidity 75    
Precipitation  
Precipitation 0.00 in - - ()
Sea Level Pressure  
Sea Level Pressure 29.93 in    
Wind  
Wind Speed 7 mph (North)    
Max Wind Speed 17 mph    
Max Gust Speed 24 mph    
Visibility 6 miles    
Events Snow    
Averages and records for this station are not official NWS values.
T = Trace of Precipitation, MM = Missing Value Source: NWS Daily Summary

Daily Weather History Graph

Daily Weather History Graph

Search for Another Location

Airport:

Trip Planner

Search our weather history database for the weather conditions in past years. The results will help you decide how hot, cold, wet, or windy it might be!

Date:

Astronomy

Jan. 05, 2014 Rise Set
Actual Time 8:15 AM EST 5:19 PM EST
Civil Twilight 7:43 AM EST 5:51 PM EST
Nautical Twilight 7:07 AM EST 6:28 PM EST
Astronomical Twilight 6:32 AM EST 7:02 PM EST
Moon 10:46 AM EST (1/5) 10:57 PM EST (1/5)
Length of Visible Light 10h 08m
Length of Day
9h 03m
Waxing Crescent, 24% of the Moon is Illuminated
Jan 5
Waxing Crescent
Jan 7
First Quarter
Jan 15
Full
Jan 24
Last Quarter
Jan 30
New

Hourly Weather History & Observations

Time (EST) Temp. Windchill Dew Point Humidity Pressure Visibility Wind Dir Wind Speed Gust Speed Precip Events Conditions
12:15 AM 29.3 °F - 29.3 °F 100% 29.95 in 7.0 mi Calm Calm - N/A   Overcast
12:34 AM 29.3 °F - 29.3 °F 100% 29.96 in 7.0 mi Calm Calm - N/A   Overcast
12:55 AM 29.1 °F - 28.9 °F 99% 29.96 in 7.0 mi Calm Calm - N/A   Overcast
1:15 AM 29.1 °F - 28.8 °F 99% 29.97 in 7.0 mi Calm Calm - N/A   Overcast
1:34 AM 28.9 °F 22.8 °F 26.8 °F 92% 29.97 in 10.0 mi North 5.8 mph - N/A   Overcast
1:55 AM 28.4 °F 21.2 °F 23.7 °F 83% 29.98 in 10.0 mi North 6.9 mph - N/A   Overcast
2:14 AM 27.9 °F 20.6 °F 23.5 °F 84% 29.98 in 10.0 mi North 6.9 mph - N/A   Overcast
2:35 AM 27.5 °F 21.1 °F 22.8 °F 83% 30.00 in 10.0 mi North 5.8 mph - N/A   Overcast
2:55 AM 27.3 °F 22.0 °F 22.5 °F 82% 30.00 in 10.0 mi North 4.6 mph - N/A   Overcast
3:14 AM 27.0 °F 21.6 °F 22.1 °F 82% 30.00 in 10.0 mi North 4.6 mph - N/A   Overcast
3:35 AM 26.4 °F 19.8 °F 21.2 °F 81% 30.00 in 10.0 mi North 5.8 mph - N/A   Overcast
3:55 AM 25.7 °F 18.0 °F 20.8 °F 82% 30.00 in 10.0 mi North 6.9 mph - N/A   Overcast
4:14 AM 25.5 °F 14.9 °F 20.3 °F 81% 29.99 in 10.0 mi North 11.5 mph - N/A   Overcast
4:35 AM 25.0 °F 16.3 °F 20.1 °F 82% 29.99 in 10.0 mi North 8.1 mph - N/A   Overcast
4:55 AM 24.6 °F 15.1 °F 19.6 °F 81% 29.99 in 10.0 mi North 9.2 mph - N/A   Overcast
5:14 AM 24.4 °F 16.5 °F 19.6 °F 82% 30.00 in 10.0 mi North 6.9 mph - N/A   Overcast
5:35 AM 23.9 °F 15.8 °F 19.2 °F 82% 30.01 in 10.0 mi North 6.9 mph - N/A   Overcast
5:55 AM 23.9 °F 15.0 °F 19.0 °F 82% 30.01 in 10.0 mi North 8.1 mph - N/A   Overcast
6:14 AM 23.9 °F 15.0 °F 19.0 °F 82% 30.02 in 10.0 mi North 8.1 mph - N/A   Overcast
6:35 AM 23.5 °F 14.5 °F 18.9 °F 82% 30.02 in 10.0 mi North 8.1 mph - N/A   Overcast
6:55 AM 23.0 °F 15.8 °F 18.5 °F 83% 30.01 in 10.0 mi North 5.8 mph - N/A   Overcast
7:15 AM 22.6 °F 11.9 °F 18.1 °F 83% 30.01 in 10.0 mi North 10.4 mph - N/A   Overcast
7:35 AM 22.1 °F 13.7 °F 17.4 °F 82% 30.01 in 10.0 mi North 6.9 mph - N/A   Overcast
7:54 AM 21.4 °F 15.1 °F 16.7 °F 82% 30.02 in 10.0 mi North 4.6 mph - N/A   Overcast
8:15 AM 21.6 °F 15.3 °F 17.1 °F 83% 30.02 in 10.0 mi North 4.6 mph - N/A   Overcast
8:35 AM 21.6 °F 15.3 °F 16.7 °F 82% 30.04 in 10.0 mi North 4.6 mph - N/A   Overcast
8:54 AM 21.2 °F 12.6 °F 16.5 °F 82% 30.03 in 10.0 mi North 6.9 mph - N/A   Overcast
9:15 AM 21.2 °F 12.6 °F 16.3 °F 82% 30.01 in 10.0 mi North 6.9 mph - N/A   Overcast
9:35 AM 21.2 °F 13.6 °F 16.3 °F 82% 30.02 in 10.0 mi North 5.8 mph - N/A   Overcast
9:54 AM 21.6 °F 14.0 °F 16.5 °F 81% 30.02 in 10.0 mi NNE 5.8 mph - N/A   Overcast
10:15 AM 21.9 °F 15.7 °F 16.7 °F 80% 30.04 in 10.0 mi North 4.6 mph - N/A   Overcast
10:35 AM 22.1 °F 15.9 °F 16.7 °F 80% 30.04 in 10.0 mi North 4.6 mph - N/A   Overcast
10:55 AM 22.1 °F 14.7 °F 16.7 °F 80% 30.03 in 10.0 mi NNE 5.8 mph - N/A   Overcast
11:15 AM 22.5 °F 15.1 °F 16.7 °F 79% 30.03 in 10.0 mi North 5.8 mph - N/A   Overcast
11:34 AM 22.1 °F 13.7 °F 16.2 °F 78% 30.00 in 7.0 mi North 6.9 mph - N/A   Overcast
11:55 AM 22.1 °F 10.6 °F 16.3 °F 79% 29.99 in 10.0 mi North 11.5 mph - N/A   Overcast
12:15 PM 22.1 °F 12.8 °F 16.5 °F 79% 29.98 in 10.0 mi North 8.1 mph - N/A   Overcast
12:34 PM 22.5 °F 13.2 °F 16.0 °F 76% 29.98 in 7.0 mi NNE 8.1 mph - N/A   Overcast
12:55 PM 22.6 °F 13.4 °F 15.8 °F 75% 29.96 in 7.0 mi NNE 8.1 mph - N/A   Overcast
1:15 PM 22.1 °F 12.8 °F 15.6 °F 76% 29.94 in 3.0 mi NNE 8.1 mph - N/A Snow Light Snow
1:34 PM 21.9 °F 11.7 °F 16.5 °F 80% 29.94 in 1.5 mi North 9.2 mph - N/A Snow Light Snow
1:55 PM 21.4 °F 10.4 °F 17.1 °F 83% 29.91 in 1.2 mi North 10.4 mph 17.3 mph N/A Snow Light Snow
2:15 PM 21.2 °F 10.1 °F 17.4 °F 85% 29.91 in 1.2 mi North 10.4 mph - N/A Snow Light Snow
2:34 PM 21.2 °F 10.1 °F 17.4 °F 85% 29.90 in 1.5 mi North 10.4 mph - N/A Snow Light Snow
2:55 PM 21.0 °F 9.9 °F 17.6 °F 87% 29.89 in 1.0 mi North 10.4 mph - N/A Snow Light Snow
3:15 PM 20.8 °F 9.0 °F 17.2 °F 86% 29.89 in 1.0 mi North 11.5 mph 19.6 mph N/A Snow Light Snow
3:34 PM 20.7 °F 9.5 °F 17.4 °F 87% 29.89 in 1.2 mi North 10.4 mph - N/A Snow Light Snow
3:55 PM 20.3 °F 6.1 °F 16.7 °F 86% 29.89 in 1.2 mi North 16.1 mph 23.0 mph N/A Snow Light Snow
4:15 PM 19.9 °F 5.7 °F 15.8 °F 84% 29.87 in 1.0 mi North 16.1 mph 24.2 mph N/A Snow Light Snow
4:34 PM 19.4 °F 7.2 °F 15.6 °F 85% 29.89 in 1.0 mi North 11.5 mph 18.4 mph N/A Snow Light Snow
4:55 PM 19.0 °F 6.1 °F 15.6 °F 87% 29.87 in 0.8 mi North 12.7 mph - N/A Snow Light Snow
5:15 PM 18.7 °F 6.3 °F 15.3 °F 87% 29.85 in 1.0 mi North 11.5 mph 17.3 mph N/A Snow Light Snow
5:34 PM 18.5 °F 4.9 °F 14.5 °F 85% 29.86 in 1.2 mi North 13.8 mph 17.3 mph N/A Snow Light Snow
5:54 PM 18.3 °F 5.9 °F 13.6 °F 82% 29.84 in 2.5 mi North 11.5 mph 19.6 mph N/A Snow Light Snow
6:15 PM 18.1 °F 6.3 °F 13.1 °F 81% 29.85 in 3.0 mi North 10.4 mph - N/A Snow Light Snow
6:34 PM 17.6 °F 4.3 °F 13.1 °F 83% 29.85 in 2.0 mi North 12.7 mph - N/A Snow Light Snow
6:55 PM 17.2 °F 1.7 °F 13.1 °F 84% 29.83 in 1.5 mi North 17.3 mph 23.0 mph N/A Snow Light Snow
7:15 PM 16.9 °F 3.4 °F 13.1 °F 85% 29.85 in 1.5 mi North 12.7 mph 18.4 mph N/A Snow Light Snow
7:34 PM 16.7 °F 3.8 °F 12.6 °F 84% 29.84 in 2.0 mi North 11.5 mph 17.3 mph N/A Snow Light Snow
7:55 PM 16.3 °F 2.7 °F 12.0 °F 83% 29.82 in 2.5 mi North 12.7 mph 20.7 mph N/A Snow Light Snow
8:15 PM 16.2 °F 2.5 °F 11.7 °F 82% 29.81 in 3.0 mi North 12.7 mph - N/A Snow Light Snow
8:34 PM 15.8 °F 2.7 °F 11.7 °F 84% 29.81 in 2.5 mi North 11.5 mph - N/A Snow Light Snow
8:55 PM 15.6 °F 0.1 °F 10.9 °F 82% 29.80 in 3.0 mi North 16.1 mph 20.7 mph N/A Snow Light Snow
9:15 PM 15.4 °F 1.6 °F 10.6 °F 81% 29.80 in 2.5 mi North 12.7 mph - N/A Snow Light Snow
9:34 PM 15.4 °F 3.8 °F 10.8 °F 82% 29.79 in 2.5 mi North 9.2 mph 17.3 mph N/A Snow Light Snow
9:55 PM 15.3 °F 2.0 °F 11.1 °F 84% 29.79 in 2.0 mi North 11.5 mph - N/A Snow Light Snow
10:15 PM 15.3 °F 3.5 °F 10.9 °F 83% 29.78 in 2.5 mi NNW 9.2 mph - N/A Snow Light Snow
10:34 PM 15.3 °F 2.8 °F 10.9 °F 83% 29.77 in 2.5 mi NNW 10.4 mph - N/A Snow Light Snow
10:55 PM 15.4 °F 1.6 °F 10.4 °F 80% 29.76 in 3.0 mi North 12.7 mph 19.6 mph N/A Snow Light Snow
11:15 PM 14.9 °F 1.6 °F 10.2 °F 82% 29.75 in 2.5 mi North 11.5 mph 19.6 mph N/A Snow Light Snow
11:34 PM 14.4 °F -1.5 °F 9.1 °F 80% 29.74 in 3.0 mi North 16.1 mph 20.7 mph N/A Snow Light Snow
11:55 PM 14.0 °F -0.2 °F 8.4 °F 78% 29.74 in 4.0 mi North 12.7 mph 23.0 mph N/A Snow Light Snow